sensor_id;sensor_type;location;lat;lon;timestamp;P1;durP1;ratioP1;P2;durP2;ratioP2
3801;SDS011;1916;51.798;12.246;2023-11-19T00:00:22;12.40;;;10.20;;
3801;SDS011;1916;51.798;12.246;2023-11-19T00:02:25;14.07;;;10.67;;
3801;SDS011;1916;51.798;12.246;2023-11-19T00:04:28;14.23;;;10.03;;
3801;SDS011;1916;51.798;12.246;2023-11-19T00:06:32;14.10;;;9.87;;
3801;SDS011;1916;51.798;12.246;2023-11-19T00:08:34;12.63;;;10.10;;
3801;SDS011;1916;51.798;12.246;2023-11-19T00:10:36;15.20;;;11.43;;
3801;SDS011;1916;51.798;12.246;2023-11-19T00:12:42;15.97;;;10.03;;
3801;SDS011;1916;51.798;12.246;2023-11-19T00:14:48;13.10;;;10.40;;
3801;SDS011;1916;51.798;12.246;2023-11-19T00:16:50;12.60;;;10.70;;
3801;SDS011;1916;51.798;12.246;2023-11-19T00:18:53;15.13;;;10.07;;
3801;SDS011;1916;51.798;12.246;2023-11-19T00:20:55;13.47;;;9.60;;
3801;SDS011;1916;51.798;12.246;2023-11-19T00:22:57;11.67;;;9.37;;
3801;SDS011;1916;51.798;12.246;2023-11-19T00:24:59;12.20;;;7.50;;
3801;SDS011;1916;51.798;12.246;2023-11-19T00:27:02;11.27;;;8.80;;
3801;SDS011;1916;51.798;12.246;2023-11-19T00:29:04;15.47;;;9.30;;
3801;SDS011;1916;51.798;12.246;2023-11-19T00:31:07;10.93;;;8.57;;
3801;SDS011;1916;51.798;12.246;2023-11-19T00:33:10;12.20;;;8.77;;
3801;SDS011;1916;51.798;12.246;2023-11-19T00:35:13;9.00;;;7.43;;
3801;SDS011;1916;51.798;12.246;2023-11-19T00:37:16;10.40;;;7.87;;
3801;SDS011;1916;51.798;12.246;2023-11-19T00:39:18;11.93;;;8.27;;
3801;SDS011;1916;51.798;12.246;2023-11-19T00:41:23;10.00;;;7.13;;
3801;SDS011;1916;51.798;12.246;2023-11-19T00:43:25;8.67;;;7.10;;
3801;SDS011;1916;51.798;12.246;2023-11-19T00:45:27;11.77;;;7.80;;
3801;SDS011;1916;51.798;12.246;2023-11-19T00:47:30;8.90;;;7.30;;
3801;SDS011;1916;51.798;12.246;2023-11-19T00:49:33;8.50;;;7.63;;
3801;SDS011;1916;51.798;12.246;2023-11-19T00:51:35;9.07;;;6.60;;
3801;SDS011;1916;51.798;12.246;2023-11-19T00:53:37;7.70;;;6.87;;
3801;SDS011;1916;51.798;12.246;2023-11-19T00:55:39;8.70;;;7.50;;
3801;SDS011;1916;51.798;12.246;2023-11-19T00:57:44;8.20;;;6.80;;
3801;SDS011;1916;51.798;12.246;2023-11-19T00:59:46;8.07;;;7.27;;
3801;SDS011;1916;51.798;12.246;2023-11-19T01:01:49;7.87;;;6.60;;
3801;SDS011;1916;51.798;12.246;2023-11-19T01:03:52;6.43;;;5.83;;
3801;SDS011;1916;51.798;12.246;2023-11-19T01:05:54;7.37;;;6.53;;
3801;SDS011;1916;51.798;12.246;2023-11-19T01:07:57;8.00;;;7.00;;
3801;SDS011;1916;51.798;12.246;2023-11-19T01:09:59;9.13;;;7.67;;
3801;SDS011;1916;51.798;12.246;2023-11-19T01:12:01;10.93;;;8.17;;
3801;SDS011;1916;51.798;12.246;2023-11-19T01:14:04;9.90;;;7.43;;
3801;SDS011;1916;51.798;12.246;2023-11-19T01:16:06;10.33;;;7.47;;
3801;SDS011;1916;51.798;12.246;2023-11-19T01:18:09;7.20;;;6.50;;
3801;SDS011;1916;51.798;12.246;2023-11-19T01:20:11;7.20;;;6.47;;
3801;SDS011;1916;51.798;12.246;2023-11-19T01:22:14;9.00;;;7.70;;
3801;SDS011;1916;51.798;12.246;2023-11-19T01:24:17;9.27;;;7.40;;
3801;SDS011;1916;51.798;12.246;2023-11-19T01:26:19;7.40;;;6.63;;
3801;SDS011;1916;51.798;12.246;2023-11-19T01:28:21;7.80;;;6.37;;
3801;SDS011;1916;51.798;12.246;2023-11-19T01:30:24;8.97;;;6.57;;
3801;SDS011;1916;51.798;12.246;2023-11-19T01:32:26;8.07;;;6.70;;
3801;SDS011;1916;51.798;12.246;2023-11-19T01:34:28;7.37;;;6.47;;
3801;SDS011;1916;51.798;12.246;2023-11-19T01:36:30;6.00;;;5.30;;
3801;SDS011;1916;51.798;12.246;2023-11-19T01:38:33;8.87;;;6.87;;
3801;SDS011;1916;51.798;12.246;2023-11-19T01:40:36;8.37;;;6.90;;
3801;SDS011;1916;51.798;12.246;2023-11-19T01:42:39;6.83;;;5.53;;
3801;SDS011;1916;51.798;12.246;2023-11-19T01:44:42;8.50;;;6.00;;
3801;SDS011;1916;51.798;12.246;2023-11-19T01:46:44;7.20;;;6.50;;
3801;SDS011;1916;51.798;12.246;2023-11-19T01:48:50;6.57;;;5.87;;
3801;SDS011;1916;51.798;12.246;2023-11-19T01:50:52;10.00;;;6.47;;
3801;SDS011;1916;51.798;12.246;2023-11-19T01:53:03;6.73;;;6.03;;
3801;SDS011;1916;51.798;12.246;2023-11-19T01:55:06;8.33;;;6.33;;
3801;SDS011;1916;51.798;12.246;2023-11-19T01:57:10;7.03;;;5.90;;
3801;SDS011;1916;51.798;12.246;2023-11-19T01:59:13;7.33;;;6.57;;
3801;SDS011;1916;51.798;12.246;2023-11-19T02:01:16;9.40;;;6.93;;
3801;SDS011;1916;51.798;12.246;2023-11-19T02:03:18;7.80;;;5.97;;
3801;SDS011;1916;51.798;12.246;2023-11-19T02:05:21;6.00;;;5.27;;
3801;SDS011;1916;51.798;12.246;2023-11-19T02:07:24;8.23;;;6.43;;
3801;SDS011;1916;51.798;12.246;2023-11-19T02:09:27;7.97;;;6.50;;
3801;SDS011;1916;51.798;12.246;2023-11-19T02:11:29;10.83;;;6.60;;
3801;SDS011;1916;51.798;12.246;2023-11-19T02:13:31;9.20;;;6.37;;
3801;SDS011;1916;51.798;12.246;2023-11-19T02:15:33;8.60;;;6.30;;
3801;SDS011;1916;51.798;12.246;2023-11-19T02:17:36;7.10;;;5.80;;
3801;SDS011;1916;51.798;12.246;2023-11-19T02:19:39;7.03;;;5.87;;
3801;SDS011;1916;51.798;12.246;2023-11-19T02:21:41;6.53;;;5.50;;
3801;SDS011;1916;51.798;12.246;2023-11-19T02:23:43;7.00;;;5.83;;
3801;SDS011;1916;51.798;12.246;2023-11-19T02:25:51;7.53;;;6.07;;
3801;SDS011;1916;51.798;12.246;2023-11-19T02:28:00;7.57;;;6.40;;
3801;SDS011;1916;51.798;12.246;2023-11-19T02:30:03;6.57;;;5.97;;
3801;SDS011;1916;51.798;12.246;2023-11-19T02:32:08;6.40;;;5.80;;
3801;SDS011;1916;51.798;12.246;2023-11-19T02:34:11;6.47;;;5.47;;
3801;SDS011;1916;51.798;12.246;2023-11-19T02:36:14;5.97;;;5.37;;
3801;SDS011;1916;51.798;12.246;2023-11-19T02:38:16;7.13;;;5.77;;
3801;SDS011;1916;51.798;12.246;2023-11-19T02:40:19;6.23;;;5.60;;
3801;SDS011;1916;51.798;12.246;2023-11-19T02:42:21;6.17;;;5.27;;
3801;SDS011;1916;51.798;12.246;2023-11-19T02:44:23;6.60;;;5.70;;
3801;SDS011;1916;51.798;12.246;2023-11-19T02:46:26;6.67;;;5.97;;
3801;SDS011;1916;51.798;12.246;2023-11-19T02:48:28;6.00;;;5.50;;
3801;SDS011;1916;51.798;12.246;2023-11-19T02:50:30;6.10;;;5.07;;
3801;SDS011;1916;51.798;12.246;2023-11-19T02:52:33;6.90;;;5.80;;
3801;SDS011;1916;51.798;12.246;2023-11-19T02:54:39;5.10;;;4.60;;
3801;SDS011;1916;51.798;12.246;2023-11-19T02:56:44;6.47;;;5.80;;
3801;SDS011;1916;51.798;12.246;2023-11-19T02:58:49;5.70;;;5.20;;
3801;SDS011;1916;51.798;12.246;2023-11-19T03:00:51;6.20;;;5.13;;
3801;SDS011;1916;51.798;12.246;2023-11-19T03:02:59;7.47;;;5.30;;
3801;SDS011;1916;51.798;12.246;2023-11-19T03:05:07;5.30;;;4.80;;
3801;SDS011;1916;51.798;12.246;2023-11-19T03:07:10;6.30;;;5.70;;
3801;SDS011;1916;51.798;12.246;2023-11-19T03:09:12;6.07;;;5.00;;
3801;SDS011;1916;51.798;12.246;2023-11-19T03:11:14;5.80;;;5.20;;
3801;SDS011;1916;51.798;12.246;2023-11-19T03:13:17;6.57;;;5.83;;
3801;SDS011;1916;51.798;12.246;2023-11-19T03:15:20;5.83;;;5.10;;
3801;SDS011;1916;51.798;12.246;2023-11-19T03:17:22;5.97;;;4.73;;
3801;SDS011;1916;51.798;12.246;2023-11-19T03:19:27;5.37;;;4.87;;
3801;SDS011;1916;51.798;12.246;2023-11-19T03:21:29;6.10;;;5.27;;
3801;SDS011;1916;51.798;12.246;2023-11-19T03:23:31;6.77;;;4.93;;
3801;SDS011;1916;51.798;12.246;2023-11-19T03:25:33;5.60;;;5.03;;
3801;SDS011;1916;51.798;12.246;2023-11-19T03:27:36;5.17;;;4.67;;
3801;SDS011;1916;51.798;12.246;2023-11-19T03:29:43;4.40;;;4.00;;
3801;SDS011;1916;51.798;12.246;2023-11-19T03:31:45;8.27;;;5.33;;
3801;SDS011;1916;51.798;12.246;2023-11-19T03:33:47;6.10;;;4.73;;
3801;SDS011;1916;51.798;12.246;2023-11-19T03:35:49;5.90;;;5.10;;
3801;SDS011;1916;51.798;12.246;2023-11-19T03:37:53;7.70;;;5.00;;
3801;SDS011;1916;51.798;12.246;2023-11-19T03:39:58;5.57;;;5.07;;
3801;SDS011;1916;51.798;12.246;2023-11-19T03:42:04;5.20;;;4.37;;
3801;SDS011;1916;51.798;12.246;2023-11-19T03:44:06;7.53;;;5.80;;
3801;SDS011;1916;51.798;12.246;2023-11-19T03:46:18;4.60;;;4.20;;
3801;SDS011;1916;51.798;12.246;2023-11-19T03:48:21;6.60;;;4.37;;
3801;SDS011;1916;51.798;12.246;2023-11-19T03:50:24;4.37;;;3.97;;
3801;SDS011;1916;51.798;12.246;2023-11-19T03:52:26;7.50;;;4.40;;
3801;SDS011;1916;51.798;12.246;2023-11-19T03:54:31;4.53;;;4.03;;
3801;SDS011;1916;51.798;12.246;2023-11-19T03:56:34;5.07;;;3.80;;
3801;SDS011;1916;51.798;12.246;2023-11-19T03:58:37;4.27;;;3.87;;
3801;SDS011;1916;51.798;12.246;2023-11-19T04:00:39;4.40;;;4.00;;
3801;SDS011;1916;51.798;12.246;2023-11-19T04:02:42;4.80;;;4.40;;
3801;SDS011;1916;51.798;12.246;2023-11-19T04:04:44;5.07;;;4.57;;
3801;SDS011;1916;51.798;12.246;2023-11-19T04:06:46;3.90;;;3.43;;
3801;SDS011;1916;51.798;12.246;2023-11-19T04:08:49;5.33;;;4.60;;
3801;SDS011;1916;51.798;12.246;2023-11-19T04:10:52;4.57;;;3.87;;
3801;SDS011;1916;51.798;12.246;2023-11-19T04:12:54;5.53;;;4.53;;
3801;SDS011;1916;51.798;12.246;2023-11-19T04:14:56;5.03;;;4.60;;
3801;SDS011;1916;51.798;12.246;2023-11-19T04:17:01;14.63;;;4.80;;
3801;SDS011;1916;51.798;12.246;2023-11-19T04:19:05;4.27;;;3.90;;
3801;SDS011;1916;51.798;12.246;2023-11-19T04:21:08;9.00;;;5.40;;
3801;SDS011;1916;51.798;12.246;2023-11-19T04:23:10;8.00;;;4.63;;
3801;SDS011;1916;51.798;12.246;2023-11-19T04:25:13;4.70;;;3.37;;
3801;SDS011;1916;51.798;12.246;2023-11-19T04:27:17;7.10;;;4.17;;
3801;SDS011;1916;51.798;12.246;2023-11-19T04:29:19;3.93;;;3.40;;
3801;SDS011;1916;51.798;12.246;2023-11-19T04:31:21;6.13;;;4.13;;
3801;SDS011;1916;51.798;12.246;2023-11-19T04:33:23;3.87;;;3.47;;
3801;SDS011;1916;51.798;12.246;2023-11-19T04:35:26;7.20;;;4.23;;
3801;SDS011;1916;51.798;12.246;2023-11-19T04:37:29;4.07;;;3.67;;
3801;SDS011;1916;51.798;12.246;2023-11-19T04:39:31;6.03;;;4.60;;
3801;SDS011;1916;51.798;12.246;2023-11-19T04:41:33;6.60;;;4.07;;
3801;SDS011;1916;51.798;12.246;2023-11-19T04:43:35;4.87;;;3.73;;
3801;SDS011;1916;51.798;12.246;2023-11-19T04:45:38;3.90;;;3.60;;
3801;SDS011;1916;51.798;12.246;2023-11-19T04:47:41;4.57;;;3.60;;
3801;SDS011;1916;51.798;12.246;2023-11-19T04:49:44;3.53;;;3.23;;
3801;SDS011;1916;51.798;12.246;2023-11-19T04:51:46;3.80;;;3.40;;
3801;SDS011;1916;51.798;12.246;2023-11-19T04:53:52;6.70;;;3.70;;
3801;SDS011;1916;51.798;12.246;2023-11-19T04:55:55;5.00;;;3.30;;
3801;SDS011;1916;51.798;12.246;2023-11-19T04:57:57;4.63;;;3.73;;
3801;SDS011;1916;51.798;12.246;2023-11-19T04:59:59;5.57;;;3.00;;
3801;SDS011;1916;51.798;12.246;2023-11-19T05:02:01;3.70;;;3.30;;
3801;SDS011;1916;51.798;12.246;2023-11-19T05:04:03;3.37;;;3.07;;
3801;SDS011;1916;51.798;12.246;2023-11-19T05:06:05;4.80;;;2.97;;
3801;SDS011;1916;51.798;12.246;2023-11-19T05:08:08;2.93;;;2.73;;
3801;SDS011;1916;51.798;12.246;2023-11-19T05:10:10;3.20;;;2.87;;
3801;SDS011;1916;51.798;12.246;2023-11-19T05:12:12;4.80;;;3.17;;
3801;SDS011;1916;51.798;12.246;2023-11-19T05:14:14;3.93;;;2.97;;
3801;SDS011;1916;51.798;12.246;2023-11-19T05:16:17;2.70;;;2.50;;
3801;SDS011;1916;51.798;12.246;2023-11-19T05:18:19;2.87;;;2.67;;
3801;SDS011;1916;51.798;12.246;2023-11-19T05:20:21;3.17;;;2.87;;
3801;SDS011;1916;51.798;12.246;2023-11-19T05:22:23;3.10;;;2.80;;
3801;SDS011;1916;51.798;12.246;2023-11-19T05:24:25;3.07;;;2.77;;
3801;SDS011;1916;51.798;12.246;2023-11-19T05:26:28;2.87;;;2.67;;
3801;SDS011;1916;51.798;12.246;2023-11-19T05:28:30;3.50;;;2.80;;
3801;SDS011;1916;51.798;12.246;2023-11-19T05:30:32;3.10;;;2.33;;
3801;SDS011;1916;51.798;12.246;2023-11-19T05:32:34;2.40;;;2.30;;
3801;SDS011;1916;51.798;12.246;2023-11-19T05:34:36;3.00;;;2.70;;
3801;SDS011;1916;51.798;12.246;2023-11-19T05:36:38;2.20;;;2.00;;
3801;SDS011;1916;51.798;12.246;2023-11-19T05:38:41;2.50;;;2.30;;
3801;SDS011;1916;51.798;12.246;2023-11-19T05:40:43;2.57;;;2.37;;
3801;SDS011;1916;51.798;12.246;2023-11-19T05:42:45;2.67;;;2.47;;
3801;SDS011;1916;51.798;12.246;2023-11-19T05:44:47;3.00;;;2.80;;
3801;SDS011;1916;51.798;12.246;2023-11-19T05:46:49;3.60;;;2.23;;
3801;SDS011;1916;51.798;12.246;2023-11-19T05:48:52;3.20;;;2.60;;
3801;SDS011;1916;51.798;12.246;2023-11-19T05:50:54;2.20;;;2.10;;
3801;SDS011;1916;51.798;12.246;2023-11-19T05:52:56;2.57;;;2.37;;
3801;SDS011;1916;51.798;12.246;2023-11-19T05:55:01;2.60;;;2.40;;
3801;SDS011;1916;51.798;12.246;2023-11-19T05:57:06;2.30;;;2.10;;
3801;SDS011;1916;51.798;12.246;2023-11-19T05:59:11;5.23;;;2.50;;
3801;SDS011;1916;51.798;12.246;2023-11-19T06:01:17;2.20;;;2.10;;
3801;SDS011;1916;51.798;12.246;2023-11-19T06:03:19;2.10;;;2.00;;
3801;SDS011;1916;51.798;12.246;2023-11-19T06:05:23;2.37;;;2.17;;
3801;SDS011;1916;51.798;12.246;2023-11-19T06:07:25;3.03;;;2.83;;
3801;SDS011;1916;51.798;12.246;2023-11-19T06:09:27;2.30;;;2.20;;
3801;SDS011;1916;51.798;12.246;2023-11-19T06:11:29;2.10;;;2.00;;
3801;SDS011;1916;51.798;12.246;2023-11-19T06:13:31;2.03;;;1.93;;
3801;SDS011;1916;51.798;12.246;2023-11-19T06:15:33;1.80;;;1.70;;
3801;SDS011;1916;51.798;12.246;2023-11-19T06:17:35;2.20;;;2.00;;
3801;SDS011;1916;51.798;12.246;2023-11-19T06:19:38;2.10;;;2.00;;
3801;SDS011;1916;51.798;12.246;2023-11-19T06:21:40;2.20;;;2.00;;
3801;SDS011;1916;51.798;12.246;2023-11-19T06:23:42;2.57;;;2.37;;
3801;SDS011;1916;51.798;12.246;2023-11-19T06:25:44;2.07;;;1.97;;
3801;SDS011;1916;51.798;12.246;2023-11-19T06:27:46;2.50;;;2.30;;
3801;SDS011;1916;51.798;12.246;2023-11-19T06:29:48;2.67;;;2.47;;
3801;SDS011;1916;51.798;12.246;2023-11-19T06:31:51;2.63;;;2.03;;
3801;SDS011;1916;51.798;12.246;2023-11-19T06:33:53;2.70;;;2.37;;
3801;SDS011;1916;51.798;12.246;2023-11-19T06:35:55;2.00;;;1.90;;
3801;SDS011;1916;51.798;12.246;2023-11-19T06:37:57;2.40;;;2.20;;
3801;SDS011;1916;51.798;12.246;2023-11-19T06:40:01;3.10;;;2.10;;
3801;SDS011;1916;51.798;12.246;2023-11-19T06:42:04;2.10;;;2.00;;
3801;SDS011;1916;51.798;12.246;2023-11-19T06:44:06;2.33;;;2.13;;
3801;SDS011;1916;51.798;12.246;2023-11-19T06:46:14;2.10;;;2.00;;
3801;SDS011;1916;51.798;12.246;2023-11-19T06:48:19;2.27;;;2.17;;
3801;SDS011;1916;51.798;12.246;2023-11-19T06:50:22;2.00;;;1.90;;
3801;SDS011;1916;51.798;12.246;2023-11-19T06:52:24;2.30;;;2.10;;
3801;SDS011;1916;51.798;12.246;2023-11-19T06:54:26;2.57;;;2.37;;
3801;SDS011;1916;51.798;12.246;2023-11-19T06:56:28;2.20;;;2.10;;
3801;SDS011;1916;51.798;12.246;2023-11-19T06:58:30;2.43;;;2.23;;
3801;SDS011;1916;51.798;12.246;2023-11-19T07:00:32;2.40;;;2.27;;
3801;SDS011;1916;51.798;12.246;2023-11-19T07:02:37;5.93;;;2.20;;
3801;SDS011;1916;51.798;12.246;2023-11-19T07:04:40;2.17;;;2.00;;
3801;SDS011;1916;51.798;12.246;2023-11-19T07:06:42;3.77;;;1.80;;
3801;SDS011;1916;51.798;12.246;2023-11-19T07:08:44;2.40;;;2.23;;
3801;SDS011;1916;51.798;12.246;2023-11-19T07:10:46;2.77;;;2.20;;
3801;SDS011;1916;51.798;12.246;2023-11-19T07:12:49;2.43;;;2.20;;
3801;SDS011;1916;51.798;12.246;2023-11-19T07:14:52;2.50;;;2.40;;
3801;SDS011;1916;51.798;12.246;2023-11-19T07:16:54;3.60;;;3.30;;
3801;SDS011;1916;51.798;12.246;2023-11-19T07:18:57;6.87;;;6.17;;
3801;SDS011;1916;51.798;12.246;2023-11-19T07:21:00;3.40;;;3.17;;
3801;SDS011;1916;51.798;12.246;2023-11-19T07:23:02;5.07;;;4.57;;
3801;SDS011;1916;51.798;12.246;2023-11-19T07:25:05;3.73;;;3.43;;
3801;SDS011;1916;51.798;12.246;2023-11-19T07:27:07;6.63;;;5.93;;
3801;SDS011;1916;51.798;12.246;2023-11-19T07:29:10;5.00;;;4.60;;
3801;SDS011;1916;51.798;12.246;2023-11-19T07:31:12;5.17;;;4.73;;
3801;SDS011;1916;51.798;12.246;2023-11-19T07:33:14;6.20;;;5.60;;
3801;SDS011;1916;51.798;12.246;2023-11-19T07:35:17;5.27;;;4.40;;
3801;SDS011;1916;51.798;12.246;2023-11-19T07:37:19;4.80;;;4.43;;
3801;SDS011;1916;51.798;12.246;2023-11-19T07:39:21;4.47;;;4.13;;
3801;SDS011;1916;51.798;12.246;2023-11-19T07:41:23;5.77;;;4.60;;
3801;SDS011;1916;51.798;12.246;2023-11-19T07:43:27;6.20;;;4.17;;
3801;SDS011;1916;51.798;12.246;2023-11-19T07:45:29;4.67;;;4.27;;
3801;SDS011;1916;51.798;12.246;2023-11-19T07:47:31;5.40;;;4.90;;
3801;SDS011;1916;51.798;12.246;2023-11-19T07:49:33;2.80;;;2.60;;
3801;SDS011;1916;51.798;12.246;2023-11-19T07:51:35;7.07;;;4.17;;
3801;SDS011;1916;51.798;12.246;2023-11-19T07:53:38;6.30;;;5.80;;
3801;SDS011;1916;51.798;12.246;2023-11-19T07:55:40;4.57;;;4.17;;
3801;SDS011;1916;51.798;12.246;2023-11-19T07:57:43;4.63;;;4.33;;
3801;SDS011;1916;51.798;12.246;2023-11-19T07:59:46;2.60;;;2.40;;
3801;SDS011;1916;51.798;12.246;2023-11-19T08:01:48;4.70;;;4.40;;
3801;SDS011;1916;51.798;12.246;2023-11-19T08:03:50;2.90;;;2.70;;
3801;SDS011;1916;51.798;12.246;2023-11-19T08:05:55;3.47;;;3.27;;
3801;SDS011;1916;51.798;12.246;2023-11-19T08:08:00;5.47;;;3.60;;
3801;SDS011;1916;51.798;12.246;2023-11-19T08:10:04;4.73;;;4.30;;
3801;SDS011;1916;51.798;12.246;2023-11-19T08:12:07;3.97;;;3.70;;
3801;SDS011;1916;51.798;12.246;2023-11-19T08:14:09;2.80;;;2.60;;
3801;SDS011;1916;51.798;12.246;2023-11-19T08:16:11;1.80;;;1.70;;
3801;SDS011;1916;51.798;12.246;2023-11-19T08:18:13;3.20;;;3.00;;
3801;SDS011;1916;51.798;12.246;2023-11-19T08:20:15;3.07;;;2.87;;
3801;SDS011;1916;51.798;12.246;2023-11-19T08:22:17;3.70;;;3.40;;
3801;SDS011;1916;51.798;12.246;2023-11-19T08:24:19;2.20;;;2.10;;
3801;SDS011;1916;51.798;12.246;2023-11-19T08:26:22;2.03;;;1.90;;
3801;SDS011;1916;51.798;12.246;2023-11-19T08:28:24;1.73;;;1.63;;
3801;SDS011;1916;51.798;12.246;2023-11-19T08:30:26;3.03;;;1.40;;
3801;SDS011;1916;51.798;12.246;2023-11-19T08:32:28;1.10;;;1.00;;
3801;SDS011;1916;51.798;12.246;2023-11-19T08:34:31;1.60;;;1.50;;
3801;SDS011;1916;51.798;12.246;2023-11-19T08:36:33;1.20;;;1.10;;
3801;SDS011;1916;51.798;12.246;2023-11-19T08:38:35;5.80;;;5.17;;
3801;SDS011;1916;51.798;12.246;2023-11-19T08:40:37;12.20;;;8.20;;
3801;SDS011;1916;51.798;12.246;2023-11-19T08:42:40;7.10;;;5.87;;
3801;SDS011;1916;51.798;12.246;2023-11-19T08:44:43;6.13;;;4.80;;
3801;SDS011;1916;51.798;12.246;2023-11-19T08:46:47;2.30;;;2.10;;
3801;SDS011;1916;51.798;12.246;2023-11-19T08:48:51;1.53;;;1.40;;
3801;SDS011;1916;51.798;12.246;2023-11-19T08:50:54;3.53;;;3.23;;
3801;SDS011;1916;51.798;12.246;2023-11-19T08:52:56;2.80;;;2.60;;
3801;SDS011;1916;51.798;12.246;2023-11-19T08:54:58;2.40;;;2.17;;
3801;SDS011;1916;51.798;12.246;2023-11-19T08:57:00;4.00;;;2.07;;
3801;SDS011;1916;51.798;12.246;2023-11-19T08:59:02;6.30;;;3.40;;
3801;SDS011;1916;51.798;12.246;2023-11-19T09:01:04;2.70;;;2.47;;
3801;SDS011;1916;51.798;12.246;2023-11-19T09:03:07;5.53;;;1.57;;
3801;SDS011;1916;51.798;12.246;2023-11-19T09:05:11;2.93;;;2.10;;
3801;SDS011;1916;51.798;12.246;2023-11-19T09:07:14;6.63;;;4.20;;
3801;SDS011;1916;51.798;12.246;2023-11-19T09:09:16;3.67;;;2.47;;
3801;SDS011;1916;51.798;12.246;2023-11-19T09:11:18;4.30;;;2.90;;
3801;SDS011;1916;51.798;12.246;2023-11-19T09:13:21;3.47;;;2.60;;
3801;SDS011;1916;51.798;12.246;2023-11-19T09:15:23;2.97;;;2.33;;
3801;SDS011;1916;51.798;12.246;2023-11-19T09:17:25;7.13;;;4.70;;
3801;SDS011;1916;51.798;12.246;2023-11-19T09:19:28;6.00;;;2.57;;
3801;SDS011;1916;51.798;12.246;2023-11-19T09:21:30;6.87;;;6.33;;
3801;SDS011;1916;51.798;12.246;2023-11-19T09:23:32;3.07;;;1.73;;
3801;SDS011;1916;51.798;12.246;2023-11-19T09:25:40;3.00;;;1.97;;
3801;SDS011;1916;51.798;12.246;2023-11-19T09:27:45;4.17;;;2.87;;
3801;SDS011;1916;51.798;12.246;2023-11-19T09:29:48;5.10;;;3.93;;
3801;SDS011;1916;51.798;12.246;2023-11-19T09:31:51;6.80;;;4.27;;
3801;SDS011;1916;51.798;12.246;2023-11-19T09:33:53;5.10;;;2.80;;
3801;SDS011;1916;51.798;12.246;2023-11-19T09:35:56;5.37;;;3.80;;
3801;SDS011;1916;51.798;12.246;2023-11-19T09:37:59;7.97;;;5.23;;
3801;SDS011;1916;51.798;12.246;2023-11-19T09:40:05;4.50;;;2.70;;
3801;SDS011;1916;51.798;12.246;2023-11-19T09:42:11;5.90;;;3.07;;
3801;SDS011;1916;51.798;12.246;2023-11-19T09:44:14;5.73;;;2.50;;
3801;SDS011;1916;51.798;12.246;2023-11-19T09:46:20;6.13;;;2.47;;
3801;SDS011;1916;51.798;12.246;2023-11-19T09:48:24;7.77;;;4.93;;
3801;SDS011;1916;51.798;12.246;2023-11-19T09:50:26;6.50;;;4.47;;
3801;SDS011;1916;51.798;12.246;2023-11-19T09:52:29;6.57;;;4.30;;
3801;SDS011;1916;51.798;12.246;2023-11-19T09:54:31;6.40;;;2.80;;
3801;SDS011;1916;51.798;12.246;2023-11-19T09:56:34;8.00;;;2.70;;
3801;SDS011;1916;51.798;12.246;2023-11-19T09:58:38;4.33;;;2.90;;
3801;SDS011;1916;51.798;12.246;2023-11-19T10:00:41;6.40;;;3.33;;
3801;SDS011;1916;51.798;12.246;2023-11-19T10:02:43;4.50;;;3.10;;
3801;SDS011;1916;51.798;12.246;2023-11-19T10:04:48;4.90;;;2.83;;
3801;SDS011;1916;51.798;12.246;2023-11-19T10:06:51;8.30;;;5.90;;
3801;SDS011;1916;51.798;12.246;2023-11-19T10:08:54;19.07;;;9.87;;
3801;SDS011;1916;51.798;12.246;2023-11-19T10:10:57;6.60;;;5.53;;
3801;SDS011;1916;51.798;12.246;2023-11-19T10:12:59;11.53;;;5.27;;
3801;SDS011;1916;51.798;12.246;2023-11-19T10:15:02;5.87;;;2.60;;
3801;SDS011;1916;51.798;12.246;2023-11-19T10:17:06;4.77;;;3.40;;
3801;SDS011;1916;51.798;12.246;2023-11-19T10:19:09;5.60;;;3.67;;
3801;SDS011;1916;51.798;12.246;2023-11-19T10:21:14;5.50;;;3.03;;
3801;SDS011;1916;51.798;12.246;2023-11-19T10:23:19;8.33;;;2.97;;
3801;SDS011;1916;51.798;12.246;2023-11-19T10:25:21;8.20;;;2.60;;
3801;SDS011;1916;51.798;12.246;2023-11-19T10:27:25;5.70;;;2.73;;
3801;SDS011;1916;51.798;12.246;2023-11-19T10:29:29;6.57;;;3.23;;
3801;SDS011;1916;51.798;12.246;2023-11-19T10:31:31;5.57;;;2.77;;
3801;SDS011;1916;51.798;12.246;2023-11-19T10:33:33;4.73;;;3.17;;
3801;SDS011;1916;51.798;12.246;2023-11-19T10:35:36;5.50;;;2.97;;
3801;SDS011;1916;51.798;12.246;2023-11-19T10:38:01;6.87;;;3.33;;
3801;SDS011;1916;51.798;12.246;2023-11-19T10:40:15;5.30;;;3.30;;
3801;SDS011;1916;51.798;12.246;2023-11-19T10:42:17;6.27;;;3.20;;
3801;SDS011;1916;51.798;12.246;2023-11-19T10:44:32;8.40;;;5.03;;
3801;SDS011;1916;51.798;12.246;2023-11-19T10:46:41;8.77;;;4.33;;
3801;SDS011;1916;51.798;12.246;2023-11-19T10:48:45;12.23;;;6.47;;
3801;SDS011;1916;51.798;12.246;2023-11-19T10:50:49;5.07;;;2.47;;
3801;SDS011;1916;51.798;12.246;2023-11-19T10:52:56;7.47;;;3.27;;
3801;SDS011;1916;51.798;12.246;2023-11-19T10:55:02;6.37;;;2.70;;
3801;SDS011;1916;51.798;12.246;2023-11-19T10:57:07;10.40;;;4.67;;
3801;SDS011;1916;51.798;12.246;2023-11-19T10:59:12;9.87;;;5.40;;
3801;SDS011;1916;51.798;12.246;2023-11-19T11:01:19;18.90;;;10.40;;
3801;SDS011;1916;51.798;12.246;2023-11-19T11:03:25;9.67;;;4.83;;
3801;SDS011;1916;51.798;12.246;2023-11-19T11:05:29;6.73;;;5.20;;
3801;SDS011;1916;51.798;12.246;2023-11-19T11:07:35;9.23;;;3.30;;
3801;SDS011;1916;51.798;12.246;2023-11-19T11:09:42;13.17;;;4.00;;
3801;SDS011;1916;51.798;12.246;2023-11-19T11:11:48;5.70;;;2.50;;
3801;SDS011;1916;51.798;12.246;2023-11-19T11:13:51;10.30;;;4.53;;
3801;SDS011;1916;51.798;12.246;2023-11-19T11:15:55;13.70;;;5.73;;
3801;SDS011;1916;51.798;12.246;2023-11-19T11:18:00;6.67;;;4.13;;
3801;SDS011;1916;51.798;12.246;2023-11-19T11:20:03;11.73;;;4.53;;
3801;SDS011;1916;51.798;12.246;2023-11-19T11:22:06;13.97;;;4.33;;
3801;SDS011;1916;51.798;12.246;2023-11-19T11:29:03;7.70;;;4.07;;
3801;SDS011;1916;51.798;12.246;2023-11-19T11:31:15;11.73;;;5.13;;
3801;SDS011;1916;51.798;12.246;2023-11-19T11:33:34;16.60;;;5.53;;
3801;SDS011;1916;51.798;12.246;2023-11-19T11:35:47;11.70;;;3.80;;
3801;SDS011;1916;51.798;12.246;2023-11-19T11:38:00;11.27;;;3.90;;
3801;SDS011;1916;51.798;12.246;2023-11-19T11:40:07;5.07;;;2.13;;
3801;SDS011;1916;51.798;12.246;2023-11-19T11:44:34;10.00;;;5.50;;
3801;SDS011;1916;51.798;12.246;2023-11-19T11:47:07;8.10;;;3.30;;
3801;SDS011;1916;51.798;12.246;2023-11-19T11:49:09;8.57;;;3.57;;
3801;SDS011;1916;51.798;12.246;2023-11-19T11:51:12;6.10;;;2.40;;
3801;SDS011;1916;51.798;12.246;2023-11-19T11:53:21;8.20;;;4.50;;
3801;SDS011;1916;51.798;12.246;2023-11-19T11:57:50;12.90;;;5.63;;
3801;SDS011;1916;51.798;12.246;2023-11-19T11:59:52;8.00;;;4.40;;
3801;SDS011;1916;51.798;12.246;2023-11-19T12:01:58;11.37;;;6.30;;
3801;SDS011;1916;51.798;12.246;2023-11-19T12:04:00;11.07;;;5.60;;
3801;SDS011;1916;51.798;12.246;2023-11-19T12:06:03;15.40;;;7.07;;
3801;SDS011;1916;51.798;12.246;2023-11-19T12:08:06;8.47;;;3.00;;
3801;SDS011;1916;51.798;12.246;2023-11-19T12:10:12;13.10;;;5.47;;
3801;SDS011;1916;51.798;12.246;2023-11-19T12:14:16;8.93;;;2.97;;
3801;SDS011;1916;51.798;12.246;2023-11-19T12:16:19;11.07;;;3.30;;
3801;SDS011;1916;51.798;12.246;2023-11-19T12:20:26;7.40;;;3.00;;
3801;SDS011;1916;51.798;12.246;2023-11-19T12:22:31;9.93;;;3.50;;
3801;SDS011;1916;51.798;12.246;2023-11-19T12:24:33;12.50;;;2.90;;
3801;SDS011;1916;51.798;12.246;2023-11-19T12:26:39;14.43;;;3.27;;
3801;SDS011;1916;51.798;12.246;2023-11-19T12:28:42;15.53;;;3.17;;
3801;SDS011;1916;51.798;12.246;2023-11-19T12:31:08;12.80;;;4.60;;
3801;SDS011;1916;51.798;12.246;2023-11-19T12:33:12;12.93;;;4.17;;
3801;SDS011;1916;51.798;12.246;2023-11-19T12:35:14;10.40;;;2.90;;
3801;SDS011;1916;51.798;12.246;2023-11-19T12:37:16;12.00;;;3.57;;
3801;SDS011;1916;51.798;12.246;2023-11-19T12:39:19;13.23;;;3.67;;
3801;SDS011;1916;51.798;12.246;2023-11-19T12:41:21;10.37;;;4.03;;
3801;SDS011;1916;51.798;12.246;2023-11-19T12:43:24;12.03;;;4.10;;
3801;SDS011;1916;51.798;12.246;2023-11-19T12:45:36;17.93;;;4.50;;